sensor_id;sensor_type;location;lat;lon;timestamp;P1;durP1;ratioP1;P2;durP2;ratioP2
611;SDS011;293;53.888;11.464;2023-08-12T00:01:33;3.90;;;3.27;;
611;SDS011;293;53.888;11.464;2023-08-12T00:04:00;4.23;;;3.80;;
611;SDS011;293;53.888;11.464;2023-08-12T00:06:27;4.50;;;4.10;;
611;SDS011;293;53.888;11.464;2023-08-12T00:08:54;4.00;;;3.50;;
611;SDS011;293;53.888;11.464;2023-08-12T00:11:21;3.93;;;3.63;;
611;SDS011;293;53.888;11.464;2023-08-12T00:13:48;5.83;;;3.93;;
611;SDS011;293;53.888;11.464;2023-08-12T00:16:16;4.10;;;3.30;;
611;SDS011;293;53.888;11.464;2023-08-12T00:18:43;3.93;;;3.60;;
611;SDS011;293;53.888;11.464;2023-08-12T00:21:10;5.17;;;3.50;;
611;SDS011;293;53.888;11.464;2023-08-12T00:23:37;4.87;;;4.07;;
611;SDS011;293;53.888;11.464;2023-08-12T00:26:05;4.30;;;3.90;;
611;SDS011;293;53.888;11.464;2023-08-12T00:28:32;4.10;;;3.77;;
611;SDS011;293;53.888;11.464;2023-08-12T00:30:59;6.33;;;3.60;;
611;SDS011;293;53.888;11.464;2023-08-12T00:33:27;4.97;;;3.87;;
611;SDS011;293;53.888;11.464;2023-08-12T00:35:54;4.10;;;3.73;;
611;SDS011;293;53.888;11.464;2023-08-12T00:38:21;5.37;;;3.50;;
611;SDS011;293;53.888;11.464;2023-08-12T00:40:48;3.67;;;3.30;;
611;SDS011;293;53.888;11.464;2023-08-12T00:43:15;4.00;;;3.50;;
611;SDS011;293;53.888;11.464;2023-08-12T00:45:41;4.97;;;3.37;;
611;SDS011;293;53.888;11.464;2023-08-12T00:48:08;4.00;;;3.67;;
611;SDS011;293;53.888;11.464;2023-08-12T00:50:38;5.17;;;3.37;;
611;SDS011;293;53.888;11.464;2023-08-12T00:53:06;4.87;;;3.43;;
611;SDS011;293;53.888;11.464;2023-08-12T00:55:34;2.87;;;2.67;;
611;SDS011;293;53.888;11.464;2023-08-12T00:58:01;3.80;;;3.50;;
611;SDS011;293;53.888;11.464;2023-08-12T01:00:29;3.67;;;3.07;;
611;SDS011;293;53.888;11.464;2023-08-12T01:02:57;2.77;;;2.50;;
611;SDS011;293;53.888;11.464;2023-08-12T01:05:24;5.03;;;3.30;;
611;SDS011;293;53.888;11.464;2023-08-12T01:07:53;4.37;;;3.53;;
611;SDS011;293;53.888;11.464;2023-08-12T01:10:20;4.37;;;3.40;;
611;SDS011;293;53.888;11.464;2023-08-12T01:12:52;3.80;;;3.40;;
611;SDS011;293;53.888;11.464;2023-08-12T01:15:25;3.77;;;3.00;;
611;SDS011;293;53.888;11.464;2023-08-12T01:17:53;5.13;;;2.93;;
611;SDS011;293;53.888;11.464;2023-08-12T01:20:21;4.13;;;3.73;;
611;SDS011;293;53.888;11.464;2023-08-12T01:22:52;3.70;;;3.40;;
611;SDS011;293;53.888;11.464;2023-08-12T01:25:24;3.57;;;3.27;;
611;SDS011;293;53.888;11.464;2023-08-12T01:27:50;3.50;;;3.20;;
611;SDS011;293;53.888;11.464;2023-08-12T01:30:17;4.23;;;3.93;;
611;SDS011;293;53.888;11.464;2023-08-12T01:32:49;5.43;;;2.77;;
611;SDS011;293;53.888;11.464;2023-08-12T01:35:21;3.53;;;3.23;;
611;SDS011;293;53.888;11.464;2023-08-12T01:37:51;4.13;;;3.83;;
611;SDS011;293;53.888;11.464;2023-08-12T01:40:19;4.10;;;3.80;;
611;SDS011;293;53.888;11.464;2023-08-12T01:42:48;3.40;;;2.97;;
611;SDS011;293;53.888;11.464;2023-08-12T01:45:17;4.67;;;2.80;;
611;SDS011;293;53.888;11.464;2023-08-12T01:47:44;3.00;;;2.50;;
611;SDS011;293;53.888;11.464;2023-08-12T01:50:12;4.17;;;3.17;;
611;SDS011;293;53.888;11.464;2023-08-12T01:52:40;3.43;;;3.23;;
611;SDS011;293;53.888;11.464;2023-08-12T01:55:07;6.67;;;3.50;;
611;SDS011;293;53.888;11.464;2023-08-12T01:57:34;4.27;;;3.87;;
611;SDS011;293;53.888;11.464;2023-08-12T02:00:03;9.33;;;3.67;;
611;SDS011;293;53.888;11.464;2023-08-12T02:02:31;7.17;;;3.00;;
611;SDS011;293;53.888;11.464;2023-08-12T02:04:58;4.00;;;3.70;;
611;SDS011;293;53.888;11.464;2023-08-12T02:07:25;4.33;;;3.50;;
611;SDS011;293;53.888;11.464;2023-08-12T02:09:51;3.23;;;2.93;;
611;SDS011;293;53.888;11.464;2023-08-12T02:12:18;5.03;;;2.47;;
611;SDS011;293;53.888;11.464;2023-08-12T02:14:45;3.40;;;3.10;;
611;SDS011;293;53.888;11.464;2023-08-12T02:17:13;4.03;;;3.73;;
611;SDS011;293;53.888;11.464;2023-08-12T02:19:40;3.93;;;3.63;;
611;SDS011;293;53.888;11.464;2023-08-12T02:22:07;3.73;;;3.43;;
611;SDS011;293;53.888;11.464;2023-08-12T02:24:35;3.77;;;3.33;;
611;SDS011;293;53.888;11.464;2023-08-12T02:27:02;3.60;;;3.30;;
611;SDS011;293;53.888;11.464;2023-08-12T02:29:29;3.30;;;2.83;;
611;SDS011;293;53.888;11.464;2023-08-12T02:31:56;3.90;;;3.50;;
611;SDS011;293;53.888;11.464;2023-08-12T02:34:24;5.30;;;3.10;;
611;SDS011;293;53.888;11.464;2023-08-12T02:36:51;3.37;;;3.07;;
611;SDS011;293;53.888;11.464;2023-08-12T02:39:18;5.00;;;3.20;;
611;SDS011;293;53.888;11.464;2023-08-12T02:41:44;3.83;;;3.03;;
611;SDS011;293;53.888;11.464;2023-08-12T02:44:11;3.67;;;3.33;;
611;SDS011;293;53.888;11.464;2023-08-12T02:46:38;7.00;;;3.73;;
611;SDS011;293;53.888;11.464;2023-08-12T02:49:05;6.80;;;3.20;;
611;SDS011;293;53.888;11.464;2023-08-12T02:51:33;6.27;;;3.50;;
611;SDS011;293;53.888;11.464;2023-08-12T02:54:00;3.77;;;3.47;;
611;SDS011;293;53.888;11.464;2023-08-12T02:56:27;6.80;;;3.30;;
611;SDS011;293;53.888;11.464;2023-08-12T02:58:54;4.20;;;3.77;;
611;SDS011;293;53.888;11.464;2023-08-12T03:01:21;3.70;;;3.20;;
611;SDS011;293;53.888;11.464;2023-08-12T03:03:49;3.47;;;3.17;;
611;SDS011;293;53.888;11.464;2023-08-12T03:06:16;3.60;;;3.30;;
611;SDS011;293;53.888;11.464;2023-08-12T03:08:45;3.30;;;3.00;;
611;SDS011;293;53.888;11.464;2023-08-12T03:11:11;4.57;;;4.17;;
611;SDS011;293;53.888;11.464;2023-08-12T03:13:38;3.97;;;3.40;;
611;SDS011;293;53.888;11.464;2023-08-12T03:16:07;4.27;;;3.87;;
611;SDS011;293;53.888;11.464;2023-08-12T03:18:38;5.17;;;3.10;;
611;SDS011;293;53.888;11.464;2023-08-12T03:21:05;3.53;;;3.20;;
611;SDS011;293;53.888;11.464;2023-08-12T03:23:32;3.47;;;3.20;;
611;SDS011;293;53.888;11.464;2023-08-12T03:26:00;4.00;;;3.70;;
611;SDS011;293;53.888;11.464;2023-08-12T03:28:27;3.93;;;3.63;;
611;SDS011;293;53.888;11.464;2023-08-12T03:30:54;3.60;;;3.30;;
611;SDS011;293;53.888;11.464;2023-08-12T03:33:21;5.20;;;3.33;;
611;SDS011;293;53.888;11.464;2023-08-12T03:35:48;3.20;;;2.50;;
611;SDS011;293;53.888;11.464;2023-08-12T03:38:16;5.47;;;2.90;;
611;SDS011;293;53.888;11.464;2023-08-12T03:40:43;2.87;;;2.37;;
611;SDS011;293;53.888;11.464;2023-08-12T03:43:11;3.60;;;2.90;;
611;SDS011;293;53.888;11.464;2023-08-12T03:45:41;3.23;;;2.97;;
611;SDS011;293;53.888;11.464;2023-08-12T03:48:08;4.53;;;2.83;;
611;SDS011;293;53.888;11.464;2023-08-12T03:50:35;3.27;;;3.07;;
611;SDS011;293;53.888;11.464;2023-08-12T03:53:03;4.63;;;3.50;;
611;SDS011;293;53.888;11.464;2023-08-12T03:55:30;3.80;;;3.50;;
611;SDS011;293;53.888;11.464;2023-08-12T03:57:57;3.13;;;2.90;;
611;SDS011;293;53.888;11.464;2023-08-12T04:00:26;3.77;;;3.47;;
611;SDS011;293;53.888;11.464;2023-08-12T04:02:53;5.17;;;2.53;;
611;SDS011;293;53.888;11.464;2023-08-12T04:05:19;3.50;;;3.23;;
611;SDS011;293;53.888;11.464;2023-08-12T04:07:46;3.67;;;2.77;;
611;SDS011;293;53.888;11.464;2023-08-12T04:10:13;3.20;;;2.97;;
611;SDS011;293;53.888;11.464;2023-08-12T04:12:40;3.03;;;2.83;;
611;SDS011;293;53.888;11.464;2023-08-12T04:15:08;4.73;;;3.57;;
611;SDS011;293;53.888;11.464;2023-08-12T04:17:37;3.53;;;3.27;;
611;SDS011;293;53.888;11.464;2023-08-12T04:20:06;5.13;;;2.77;;
611;SDS011;293;53.888;11.464;2023-08-12T04:22:33;3.03;;;2.80;;
611;SDS011;293;53.888;11.464;2023-08-12T04:25:00;3.33;;;3.07;;
611;SDS011;293;53.888;11.464;2023-08-12T04:27:28;3.07;;;2.87;;
611;SDS011;293;53.888;11.464;2023-08-12T04:29:55;4.90;;;3.57;;
611;SDS011;293;53.888;11.464;2023-08-12T04:32:21;3.30;;;2.73;;
611;SDS011;293;53.888;11.464;2023-08-12T04:34:50;3.67;;;3.23;;
611;SDS011;293;53.888;11.464;2023-08-12T04:37:16;4.30;;;3.07;;
611;SDS011;293;53.888;11.464;2023-08-12T04:39:43;5.37;;;3.10;;
611;SDS011;293;53.888;11.464;2023-08-12T04:42:11;3.80;;;3.00;;
611;SDS011;293;53.888;11.464;2023-08-12T04:44:37;3.30;;;3.03;;
611;SDS011;293;53.888;11.464;2023-08-12T04:47:04;3.20;;;2.90;;
611;SDS011;293;53.888;11.464;2023-08-12T04:49:31;3.50;;;3.23;;
611;SDS011;293;53.888;11.464;2023-08-12T04:51:59;3.77;;;3.00;;
611;SDS011;293;53.888;11.464;2023-08-12T04:54:26;3.13;;;2.33;;
611;SDS011;293;53.888;11.464;2023-08-12T04:56:53;4.80;;;2.57;;
611;SDS011;293;53.888;11.464;2023-08-12T04:59:21;4.30;;;2.93;;
611;SDS011;293;53.888;11.464;2023-08-12T05:01:48;2.70;;;2.20;;
611;SDS011;293;53.888;11.464;2023-08-12T05:04:15;3.70;;;2.70;;
611;SDS011;293;53.888;11.464;2023-08-12T05:06:42;2.53;;;2.33;;
611;SDS011;293;53.888;11.464;2023-08-12T05:09:10;2.50;;;2.37;;
611;SDS011;293;53.888;11.464;2023-08-12T05:11:37;2.80;;;2.60;;
611;SDS011;293;53.888;11.464;2023-08-12T05:14:03;3.10;;;2.90;;
611;SDS011;293;53.888;11.464;2023-08-12T05:16:30;2.60;;;2.40;;
611;SDS011;293;53.888;11.464;2023-08-12T05:18:57;3.20;;;3.00;;
611;SDS011;293;53.888;11.464;2023-08-12T05:21:24;2.57;;;2.43;;
611;SDS011;293;53.888;11.464;2023-08-12T05:23:51;2.50;;;2.40;;
611;SDS011;293;53.888;11.464;2023-08-12T05:26:19;3.47;;;3.17;;
611;SDS011;293;53.888;11.464;2023-08-12T05:28:47;2.90;;;2.70;;
611;SDS011;293;53.888;11.464;2023-08-12T05:31:13;3.50;;;2.60;;
611;SDS011;293;53.888;11.464;2023-08-12T05:33:40;2.87;;;2.67;;
611;SDS011;293;53.888;11.464;2023-08-12T05:36:07;3.37;;;2.83;;
611;SDS011;293;53.888;11.464;2023-08-12T05:38:35;2.73;;;2.60;;
611;SDS011;293;53.888;11.464;2023-08-12T05:41:01;3.10;;;2.90;;
611;SDS011;293;53.888;11.464;2023-08-12T05:43:33;31.03;;;27.83;;
611;SDS011;293;53.888;11.464;2023-08-12T05:46:00;8.87;;;8.07;;
611;SDS011;293;53.888;11.464;2023-08-12T05:48:28;4.47;;;4.17;;
611;SDS011;293;53.888;11.464;2023-08-12T05:50:55;6.07;;;3.37;;
611;SDS011;293;53.888;11.464;2023-08-12T05:53:23;3.00;;;2.90;;
611;SDS011;293;53.888;11.464;2023-08-12T05:55:51;2.77;;;2.57;;
611;SDS011;293;53.888;11.464;2023-08-12T05:58:19;4.57;;;3.00;;
611;SDS011;293;53.888;11.464;2023-08-12T06:00:48;2.30;;;2.20;;
611;SDS011;293;53.888;11.464;2023-08-12T06:03:16;3.70;;;2.53;;
611;SDS011;293;53.888;11.464;2023-08-12T06:05:45;4.80;;;2.87;;
611;SDS011;293;53.888;11.464;2023-08-12T06:08:13;2.63;;;2.43;;
611;SDS011;293;53.888;11.464;2023-08-12T06:10:40;6.50;;;3.13;;
611;SDS011;293;53.888;11.464;2023-08-12T06:13:07;2.67;;;2.47;;
611;SDS011;293;53.888;11.464;2023-08-12T06:15:34;3.37;;;2.57;;
611;SDS011;293;53.888;11.464;2023-08-12T06:18:02;2.90;;;2.70;;
611;SDS011;293;53.888;11.464;2023-08-12T06:20:29;4.53;;;3.47;;
611;SDS011;293;53.888;11.464;2023-08-12T06:22:56;5.37;;;2.83;;
611;SDS011;293;53.888;11.464;2023-08-12T06:25:23;3.37;;;3.10;;
611;SDS011;293;53.888;11.464;2023-08-12T06:27:50;3.40;;;2.50;;
611;SDS011;293;53.888;11.464;2023-08-12T06:30:17;3.20;;;3.00;;
611;SDS011;293;53.888;11.464;2023-08-12T06:32:43;5.13;;;3.37;;
611;SDS011;293;53.888;11.464;2023-08-12T06:35:12;3.40;;;2.70;;
611;SDS011;293;53.888;11.464;2023-08-12T06:37:39;2.77;;;2.47;;
611;SDS011;293;53.888;11.464;2023-08-12T06:40:07;3.20;;;2.80;;
611;SDS011;293;53.888;11.464;2023-08-12T06:42:34;3.50;;;3.20;;
611;SDS011;293;53.888;11.464;2023-08-12T06:45:01;4.57;;;4.10;;
611;SDS011;293;53.888;11.464;2023-08-12T06:47:29;3.63;;;3.33;;
611;SDS011;293;53.888;11.464;2023-08-12T06:49:56;3.30;;;3.00;;
611;SDS011;293;53.888;11.464;2023-08-12T06:52:24;3.20;;;2.63;;
611;SDS011;293;53.888;11.464;2023-08-12T06:54:51;7.83;;;7.03;;
611;SDS011;293;53.888;11.464;2023-08-12T06:57:18;9.17;;;8.20;;
611;SDS011;293;53.888;11.464;2023-08-12T06:59:45;4.07;;;3.00;;
611;SDS011;293;53.888;11.464;2023-08-12T07:02:12;2.73;;;2.50;;
611;SDS011;293;53.888;11.464;2023-08-12T07:04:39;4.50;;;4.10;;
611;SDS011;293;53.888;11.464;2023-08-12T07:07:05;4.87;;;3.70;;
611;SDS011;293;53.888;11.464;2023-08-12T07:09:34;5.60;;;4.83;;
611;SDS011;293;53.888;11.464;2023-08-12T07:12:01;16.93;;;4.50;;
611;SDS011;293;53.888;11.464;2023-08-12T07:14:29;4.50;;;4.10;;
611;SDS011;293;53.888;11.464;2023-08-12T07:16:56;4.33;;;3.30;;
611;SDS011;293;53.888;11.464;2023-08-12T07:19:23;6.10;;;4.43;;
611;SDS011;293;53.888;11.464;2023-08-12T07:21:50;5.73;;;4.40;;
611;SDS011;293;53.888;11.464;2023-08-12T07:24:17;3.60;;;2.87;;
611;SDS011;293;53.888;11.464;2023-08-12T07:26:45;3.27;;;3.07;;
611;SDS011;293;53.888;11.464;2023-08-12T07:29:12;4.10;;;3.80;;
611;SDS011;293;53.888;11.464;2023-08-12T07:31:39;5.20;;;3.30;;
611;SDS011;293;53.888;11.464;2023-08-12T07:34:06;3.50;;;3.20;;
611;SDS011;293;53.888;11.464;2023-08-12T07:36:33;4.40;;;2.47;;
611;SDS011;293;53.888;11.464;2023-08-12T07:39:00;4.10;;;3.20;;
611;SDS011;293;53.888;11.464;2023-08-12T07:41:27;3.77;;;3.47;;
611;SDS011;293;53.888;11.464;2023-08-12T07:43:55;3.63;;;2.87;;
611;SDS011;293;53.888;11.464;2023-08-12T07:46:22;3.83;;;3.57;;
611;SDS011;293;53.888;11.464;2023-08-12T07:48:49;3.60;;;3.10;;
611;SDS011;293;53.888;11.464;2023-08-12T07:51:16;2.70;;;2.50;;
611;SDS011;293;53.888;11.464;2023-08-12T07:53:43;3.93;;;3.60;;
611;SDS011;293;53.888;11.464;2023-08-12T07:56:10;6.23;;;3.60;;
611;SDS011;293;53.888;11.464;2023-08-12T07:58:37;4.13;;;3.73;;
611;SDS011;293;53.888;11.464;2023-08-12T08:01:05;6.63;;;4.90;;
611;SDS011;293;53.888;11.464;2023-08-12T08:03:34;4.13;;;3.33;;
611;SDS011;293;53.888;11.464;2023-08-12T08:06:00;5.17;;;4.70;;
611;SDS011;293;53.888;11.464;2023-08-12T08:08:27;5.97;;;3.53;;
611;SDS011;293;53.888;11.464;2023-08-12T08:10:54;3.63;;;3.33;;
611;SDS011;293;53.888;11.464;2023-08-12T08:13:21;3.60;;;3.40;;
611;SDS011;293;53.888;11.464;2023-08-12T08:15:48;5.57;;;3.13;;
611;SDS011;293;53.888;11.464;2023-08-12T08:18:16;3.20;;;2.97;;
611;SDS011;293;53.888;11.464;2023-08-12T08:20:43;5.30;;;3.10;;
611;SDS011;293;53.888;11.464;2023-08-12T08:23:10;3.80;;;3.17;;
611;SDS011;293;53.888;11.464;2023-08-12T08:25:38;6.00;;;3.33;;
611;SDS011;293;53.888;11.464;2023-08-12T08:28:05;3.50;;;2.87;;
611;SDS011;293;53.888;11.464;2023-08-12T08:30:33;3.97;;;3.57;;
611;SDS011;293;53.888;11.464;2023-08-12T08:33:00;3.17;;;2.97;;
611;SDS011;293;53.888;11.464;2023-08-12T08:35:28;3.37;;;3.13;;
611;SDS011;293;53.888;11.464;2023-08-12T08:37:55;3.67;;;3.47;;
611;SDS011;293;53.888;11.464;2023-08-12T08:40:21;3.47;;;3.17;;
611;SDS011;293;53.888;11.464;2023-08-12T08:42:51;3.37;;;3.07;;
611;SDS011;293;53.888;11.464;2023-08-12T08:45:19;3.10;;;2.73;;
611;SDS011;293;53.888;11.464;2023-08-12T08:47:48;3.80;;;3.50;;
611;SDS011;293;53.888;11.464;2023-08-12T08:50:17;5.40;;;3.90;;
611;SDS011;293;53.888;11.464;2023-08-12T08:52:45;3.10;;;2.80;;
611;SDS011;293;53.888;11.464;2023-08-12T08:55:13;3.33;;;3.13;;
611;SDS011;293;53.888;11.464;2023-08-12T08:57:40;2.40;;;2.20;;
611;SDS011;293;53.888;11.464;2023-08-12T09:00:10;3.30;;;3.10;;
611;SDS011;293;53.888;11.464;2023-08-12T09:02:39;3.77;;;3.47;;
611;SDS011;293;53.888;11.464;2023-08-12T09:05:07;3.70;;;3.40;;
611;SDS011;293;53.888;11.464;2023-08-12T09:07:35;4.37;;;3.07;;
611;SDS011;293;53.888;11.464;2023-08-12T09:10:04;7.00;;;3.10;;
611;SDS011;293;53.888;11.464;2023-08-12T09:12:31;3.50;;;3.20;;
611;SDS011;293;53.888;11.464;2023-08-12T09:14:58;3.00;;;2.80;;
611;SDS011;293;53.888;11.464;2023-08-12T09:17:25;3.63;;;3.10;;
611;SDS011;293;53.888;11.464;2023-08-12T09:19:52;5.70;;;5.27;;
611;SDS011;293;53.888;11.464;2023-08-12T09:22:19;5.20;;;3.20;;
611;SDS011;293;53.888;11.464;2023-08-12T09:24:46;3.90;;;3.50;;
611;SDS011;293;53.888;11.464;2023-08-12T09:27:18;3.33;;;2.93;;
611;SDS011;293;53.888;11.464;2023-08-12T09:29:45;3.17;;;2.97;;
611;SDS011;293;53.888;11.464;2023-08-12T09:32:12;4.33;;;3.77;;
611;SDS011;293;53.888;11.464;2023-08-12T09:34:46;3.17;;;2.97;;
611;SDS011;293;53.888;11.464;2023-08-12T09:37:14;3.80;;;3.53;;
611;SDS011;293;53.888;11.464;2023-08-12T09:39:41;3.83;;;3.53;;
611;SDS011;293;53.888;11.464;2023-08-12T09:42:08;4.83;;;4.33;;
611;SDS011;293;53.888;11.464;2023-08-12T09:44:37;3.53;;;3.20;;
611;SDS011;293;53.888;11.464;2023-08-12T09:47:05;5.40;;;4.77;;
611;SDS011;293;53.888;11.464;2023-08-12T09:49:33;6.57;;;4.40;;
611;SDS011;293;53.888;11.464;2023-08-12T09:52:00;5.50;;;4.20;;
611;SDS011;293;53.888;11.464;2023-08-12T09:54:28;4.80;;;4.00;;
611;SDS011;293;53.888;11.464;2023-08-12T09:56:58;4.37;;;3.47;;
611;SDS011;293;53.888;11.464;2023-08-12T09:59:27;8.70;;;3.67;;
611;SDS011;293;53.888;11.464;2023-08-12T10:01:58;7.13;;;5.30;;
611;SDS011;293;53.888;11.464;2023-08-12T10:04:29;4.43;;;4.03;;
611;SDS011;293;53.888;11.464;2023-08-12T10:07:04;7.80;;;4.20;;
611;SDS011;293;53.888;11.464;2023-08-12T10:09:32;3.17;;;2.97;;
611;SDS011;293;53.888;11.464;2023-08-12T10:12:01;3.17;;;2.93;;
611;SDS011;293;53.888;11.464;2023-08-12T10:14:28;3.93;;;3.63;;
611;SDS011;293;53.888;11.464;2023-08-12T10:16:56;4.20;;;3.80;;
611;SDS011;293;53.888;11.464;2023-08-12T10:19:25;4.83;;;4.47;;
611;SDS011;293;53.888;11.464;2023-08-12T10:21:54;6.57;;;3.73;;
611;SDS011;293;53.888;11.464;2023-08-12T10:24:23;4.63;;;3.97;;
611;SDS011;293;53.888;11.464;2023-08-12T10:26:51;4.40;;;4.00;;
611;SDS011;293;53.888;11.464;2023-08-12T10:29:18;6.13;;;3.83;;
611;SDS011;293;53.888;11.464;2023-08-12T10:31:46;4.70;;;3.70;;
611;SDS011;293;53.888;11.464;2023-08-12T10:34:20;4.50;;;4.10;;
611;SDS011;293;53.888;11.464;2023-08-12T10:36:48;5.00;;;4.57;;
611;SDS011;293;53.888;11.464;2023-08-12T10:39:21;4.00;;;3.70;;
611;SDS011;293;53.888;11.464;2023-08-12T10:41:51;6.33;;;4.00;;
611;SDS011;293;53.888;11.464;2023-08-12T10:44:20;6.27;;;3.97;;
611;SDS011;293;53.888;11.464;2023-08-12T10:46:51;4.17;;;3.77;;
611;SDS011;293;53.888;11.464;2023-08-12T10:49:20;4.77;;;4.37;;
611;SDS011;293;53.888;11.464;2023-08-12T10:51:49;5.30;;;4.33;;
611;SDS011;293;53.888;11.464;2023-08-12T10:54:17;3.90;;;3.60;;
611;SDS011;293;53.888;11.464;2023-08-12T10:57:03;4.60;;;3.83;;
611;SDS011;293;53.888;11.464;2023-08-12T10:59:48;7.77;;;4.40;;
611;SDS011;293;53.888;11.464;2023-08-12T11:02:16;4.57;;;4.17;;
611;SDS011;293;53.888;11.464;2023-08-12T11:04:44;4.03;;;3.73;;
611;SDS011;293;53.888;11.464;2023-08-12T11:07:32;4.20;;;3.90;;
611;SDS011;293;53.888;11.464;2023-08-12T11:10:03;3.30;;;3.10;;
611;SDS011;293;53.888;11.464;2023-08-12T11:12:35;6.70;;;4.30;;
611;SDS011;293;53.888;11.464;2023-08-12T11:15:03;4.03;;;3.73;;
611;SDS011;293;53.888;11.464;2023-08-12T11:17:34;4.67;;;3.77;;
611;SDS011;293;53.888;11.464;2023-08-12T11:20:03;5.13;;;4.63;;
611;SDS011;293;53.888;11.464;2023-08-12T11:22:34;5.23;;;4.73;;
611;SDS011;293;53.888;11.464;2023-08-12T11:25:03;4.00;;;3.60;;
611;SDS011;293;53.888;11.464;2023-08-12T11:27:36;4.00;;;3.60;;
611;SDS011;293;53.888;11.464;2023-08-12T11:30:08;4.03;;;3.73;;
611;SDS011;293;53.888;11.464;2023-08-12T11:32:37;4.20;;;3.40;;
611;SDS011;293;53.888;11.464;2023-08-12T11:35:05;4.07;;;3.77;;
611;SDS011;293;53.888;11.464;2023-08-12T11:37:36;3.80;;;3.37;;
611;SDS011;293;53.888;11.464;2023-08-12T11:40:03;4.90;;;3.87;;
611;SDS011;293;53.888;11.464;2023-08-12T11:42:33;4.13;;;3.73;;
611;SDS011;293;53.888;11.464;2023-08-12T11:45:00;4.90;;;4.40;;
611;SDS011;293;53.888;11.464;2023-08-12T11:47:27;11.63;;;4.97;;
611;SDS011;293;53.888;11.464;2023-08-12T11:49:54;4.17;;;3.87;;
611;SDS011;293;53.888;11.464;2023-08-12T11:52:21;3.83;;;3.50;;
611;SDS011;293;53.888;11.464;2023-08-12T11:54:50;4.30;;;3.83;;
611;SDS011;293;53.888;11.464;2023-08-12T11:57:18;4.47;;;3.93;;
611;SDS011;293;53.888;11.464;2023-08-12T11:59:45;7.00;;;4.90;;
611;SDS011;293;53.888;11.464;2023-08-12T12:02:12;4.67;;;4.27;;
611;SDS011;293;53.888;11.464;2023-08-12T12:04:40;5.63;;;3.80;;
611;SDS011;293;53.888;11.464;2023-08-12T12:07:17;4.93;;;4.53;;
611;SDS011;293;53.888;11.464;2023-08-12T12:09:45;4.70;;;4.40;;
611;SDS011;293;53.888;11.464;2023-08-12T12:12:13;6.10;;;3.90;;
611;SDS011;293;53.888;11.464;2023-08-12T12:14:40;4.57;;;4.10;;
611;SDS011;293;53.888;11.464;2023-08-12T12:17:07;4.20;;;3.90;;
611;SDS011;293;53.888;11.464;2023-08-12T12:19:35;3.97;;;3.67;;
611;SDS011;293;53.888;11.464;2023-08-12T12:22:03;4.73;;;4.33;;
611;SDS011;293;53.888;11.464;2023-08-12T12:24:30;4.67;;;4.27;;
611;SDS011;293;53.888;11.464;2023-08-12T12:26:57;4.47;;;4.00;;
611;SDS011;293;53.888;11.464;2023-08-12T12:29:25;5.50;;;4.53;;
611;SDS011;293;53.888;11.464;2023-08-12T12:31:52;4.60;;;4.20;;
611;SDS011;293;53.888;11.464;2023-08-12T12:34:19;6.20;;;4.97;;
611;SDS011;293;53.888;11.464;2023-08-12T12:36:46;5.90;;;4.10;;
611;SDS011;293;53.888;11.464;2023-08-12T12:39:13;4.53;;;4.23;;
611;SDS011;293;53.888;11.464;2023-08-12T12:41:40;4.90;;;4.57;;
611;SDS011;293;53.888;11.464;2023-08-12T12:44:07;6.53;;;5.00;;
611;SDS011;293;53.888;11.464;2023-08-12T12:46:35;4.43;;;3.63;;
611;SDS011;293;53.888;11.464;2023-08-12T12:49:02;4.27;;;3.90;;
611;SDS011;293;53.888;11.464;2023-08-12T12:51:29;10.23;;;4.53;;
611;SDS011;293;53.888;11.464;2023-08-12T12:53:56;4.57;;;4.20;;
611;SDS011;293;53.888;11.464;2023-08-12T12:56:23;6.50;;;4.43;;
611;SDS011;293;53.888;11.464;2023-08-12T12:58:50;6.27;;;4.20;;
611;SDS011;293;53.888;11.464;2023-08-12T13:01:17;4.77;;;4.37;;
611;SDS011;293;53.888;11.464;2023-08-12T13:03:45;6.50;;;4.40;;
611;SDS011;293;53.888;11.464;2023-08-12T13:06:12;4.30;;;4.00;;
611;SDS011;293;53.888;11.464;2023-08-12T13:08:38;5.53;;;3.90;;
611;SDS011;293;53.888;11.464;2023-08-12T13:11:05;5.03;;;4.63;;
611;SDS011;293;53.888;11.464;2023-08-12T13:13:32;3.87;;;3.57;;
611;SDS011;293;53.888;11.464;2023-08-12T13:15:59;4.70;;;4.27;;
611;SDS011;293;53.888;11.464;2023-08-12T13:18:26;5.30;;;4.73;;
611;SDS011;293;53.888;11.464;2023-08-12T13:20:54;4.70;;;4.30;;
611;SDS011;293;53.888;11.464;2023-08-12T13:23:21;5.90;;;4.60;;
611;SDS011;293;53.888;11.464;2023-08-12T13:25:48;9.40;;;7.60;;
611;SDS011;293;53.888;11.464;2023-08-12T13:28:15;5.80;;;4.27;;
611;SDS011;293;53.888;11.464;2023-08-12T13:30:41;4.83;;;4.30;;
611;SDS011;293;53.888;11.464;2023-08-12T13:33:09;4.67;;;4.27;;
611;SDS011;293;53.888;11.464;2023-08-12T13:35:37;4.63;;;4.23;;
611;SDS011;293;53.888;11.464;2023-08-12T13:38:05;11.03;;;5.77;;
611;SDS011;293;53.888;11.464;2023-08-12T13:40:32;5.23;;;4.67;;
611;SDS011;293;53.888;11.464;2023-08-12T13:42:59;4.90;;;4.50;;
611;SDS011;293;53.888;11.464;2023-08-12T13:45:25;5.50;;;4.43;;
611;SDS011;293;53.888;11.464;2023-08-12T13:47:52;6.73;;;6.03;;
611;SDS011;293;53.888;11.464;2023-08-12T13:50:19;11.33;;;7.40;;
611;SDS011;293;53.888;11.464;2023-08-12T13:52:46;11.23;;;6.50;;
611;SDS011;293;53.888;11.464;2023-08-12T13:55:15;9.43;;;6.73;;
611;SDS011;293;53.888;11.464;2023-08-12T13:57:42;7.03;;;5.23;;
611;SDS011;293;53.888;11.464;2023-08-12T14:00:09;7.90;;;7.30;;
611;SDS011;293;53.888;11.464;2023-08-12T14:02:39;8.90;;;7.40;;
611;SDS011;293;53.888;11.464;2023-08-12T14:05:06;10.17;;;8.47;;
611;SDS011;293;53.888;11.464;2023-08-12T14:07:35;8.30;;;7.60;;
611;SDS011;293;53.888;11.464;2023-08-12T14:10:02;11.27;;;7.77;;
611;SDS011;293;53.888;11.464;2023-08-12T14:12:31;12.90;;;8.10;;
611;SDS011;293;53.888;11.464;2023-08-12T14:14:58;9.37;;;8.50;;
611;SDS011;293;53.888;11.464;2023-08-12T14:17:24;8.87;;;8.00;;
611;SDS011;293;53.888;11.464;2023-08-12T14:19:51;8.53;;;7.93;;
611;SDS011;293;53.888;11.464;2023-08-12T14:22:19;8.33;;;7.43;;
611;SDS011;293;53.888;11.464;2023-08-12T14:24:46;9.63;;;7.83;;
611;SDS011;293;53.888;11.464;2023-08-12T14:27:14;7.77;;;7.00;;
611;SDS011;293;53.888;11.464;2023-08-12T14:29:43;9.47;;;8.00;;
611;SDS011;293;53.888;11.464;2023-08-12T14:32:11;9.13;;;8.23;;
611;SDS011;293;53.888;11.464;2023-08-12T14:34:41;7.57;;;6.97;;
611;SDS011;293;53.888;11.464;2023-08-12T14:37:10;8.20;;;7.60;;
611;SDS011;293;53.888;11.464;2023-08-12T14:39:37;11.87;;;7.30;;
611;SDS011;293;53.888;11.464;2023-08-12T14:42:04;8.27;;;7.67;;
611;SDS011;293;53.888;11.464;2023-08-12T14:44:33;7.50;;;6.83;;
611;SDS011;293;53.888;11.464;2023-08-12T14:47:01;7.23;;;6.60;;
611;SDS011;293;53.888;11.464;2023-08-12T14:49:29;6.47;;;5.93;;
611;SDS011;293;53.888;11.464;2023-08-12T14:51:55;9.17;;;8.53;;
611;SDS011;293;53.888;11.464;2023-08-12T14:54:22;8.07;;;7.37;;
611;SDS011;293;53.888;11.464;2023-08-12T14:56:49;8.13;;;7.40;;
611;SDS011;293;53.888;11.464;2023-08-12T14:59:16;8.77;;;8.07;;
611;SDS011;293;53.888;11.464;2023-08-12T15:01:43;8.43;;;7.93;;
611;SDS011;293;53.888;11.464;2023-08-12T15:04:11;9.50;;;8.80;;
611;SDS011;293;53.888;11.464;2023-08-12T15:06:38;10.77;;;9.67;;
611;SDS011;293;53.888;11.464;2023-08-12T15:09:05;10.97;;;9.87;;
611;SDS011;293;53.888;11.464;2023-08-12T15:11:34;8.47;;;7.87;;
611;SDS011;293;53.888;11.464;2023-08-12T15:14:01;8.50;;;7.90;;
611;SDS011;293;53.888;11.464;2023-08-12T15:16:27;9.57;;;8.77;;
611;SDS011;293;53.888;11.464;2023-08-12T15:18:54;9.40;;;8.60;;
611;SDS011;293;53.888;11.464;2023-08-12T15:21:22;12.57;;;11.27;;
611;SDS011;293;53.888;11.464;2023-08-12T15:23:49;13.60;;;12.20;;
611;SDS011;293;53.888;11.464;2023-08-12T15:26:17;15.33;;;14.03;;
611;SDS011;293;53.888;11.464;2023-08-12T15:28:44;18.27;;;12.67;;
611;SDS011;293;53.888;11.464;2023-08-12T15:31:11;12.50;;;11.50;;
611;SDS011;293;53.888;11.464;2023-08-12T15:33:38;17.23;;;15.57;;